sensor_id;sensor_type;location;lat;lon;timestamp;P1;durP1;ratioP1;P2;durP2;ratioP2
9218;SDS011;4644;48.858;9.184;2023-12-20T00:00:20;0.70;;;0.70;;
9218;SDS011;4644;48.858;9.184;2023-12-20T00:02:47;0.50;;;0.50;;
9218;SDS011;4644;48.858;9.184;2023-12-20T00:05:14;0.80;;;0.80;;
9218;SDS011;4644;48.858;9.184;2023-12-20T00:07:42;0.60;;;0.60;;
9218;SDS011;4644;48.858;9.184;2023-12-20T00:10:09;0.60;;;0.60;;
9218;SDS011;4644;48.858;9.184;2023-12-20T00:12:38;0.70;;;0.70;;
9218;SDS011;4644;48.858;9.184;2023-12-20T00:15:07;0.60;;;0.60;;
9218;SDS011;4644;48.858;9.184;2023-12-20T00:17:34;0.60;;;0.60;;
9218;SDS011;4644;48.858;9.184;2023-12-20T00:20:01;0.60;;;0.60;;
9218;SDS011;4644;48.858;9.184;2023-12-20T00:22:30;0.60;;;0.60;;
9218;SDS011;4644;48.858;9.184;2023-12-20T00:24:57;0.70;;;0.70;;
9218;SDS011;4644;48.858;9.184;2023-12-20T00:27:24;0.60;;;0.60;;
9218;SDS011;4644;48.858;9.184;2023-12-20T00:29:51;0.55;;;0.55;;
9218;SDS011;4644;48.858;9.184;2023-12-20T00:32:19;0.67;;;0.67;;
9218;SDS011;4644;48.858;9.184;2023-12-20T00:34:46;0.60;;;0.60;;
9218;SDS011;4644;48.858;9.184;2023-12-20T00:37:13;0.70;;;0.70;;
9218;SDS011;4644;48.858;9.184;2023-12-20T00:39:40;0.60;;;0.60;;
9218;SDS011;4644;48.858;9.184;2023-12-20T00:42:06;0.63;;;0.63;;
9218;SDS011;4644;48.858;9.184;2023-12-20T00:44:33;0.70;;;0.70;;
9218;SDS011;4644;48.858;9.184;2023-12-20T00:47:00;0.63;;;0.63;;
9218;SDS011;4644;48.858;9.184;2023-12-20T00:49:28;0.60;;;0.60;;
9218;SDS011;4644;48.858;9.184;2023-12-20T00:51:55;0.60;;;0.60;;
9218;SDS011;4644;48.858;9.184;2023-12-20T00:54:22;0.60;;;0.60;;
9218;SDS011;4644;48.858;9.184;2023-12-20T00:56:49;0.77;;;0.70;;
9218;SDS011;4644;48.858;9.184;2023-12-20T00:59:16;0.70;;;0.70;;
9218;SDS011;4644;48.858;9.184;2023-12-20T01:01:43;0.70;;;0.70;;
9218;SDS011;4644;48.858;9.184;2023-12-20T01:04:10;0.80;;;0.80;;
9218;SDS011;4644;48.858;9.184;2023-12-20T01:06:37;0.70;;;0.70;;
9218;SDS011;4644;48.858;9.184;2023-12-20T01:09:04;1.00;;;0.90;;
9218;SDS011;4644;48.858;9.184;2023-12-20T01:11:31;0.80;;;0.80;;
9218;SDS011;4644;48.858;9.184;2023-12-20T01:13:58;0.77;;;0.77;;
9218;SDS011;4644;48.858;9.184;2023-12-20T01:16:25;0.90;;;0.90;;
9218;SDS011;4644;48.858;9.184;2023-12-20T01:18:52;1.05;;;1.00;;
9218;SDS011;4644;48.858;9.184;2023-12-20T01:21:19;1.25;;;1.15;;
9218;SDS011;4644;48.858;9.184;2023-12-20T01:23:47;0.90;;;0.90;;
9218;SDS011;4644;48.858;9.184;2023-12-20T01:26:14;0.93;;;0.93;;
9218;SDS011;4644;48.858;9.184;2023-12-20T01:28:41;0.80;;;0.80;;
9218;SDS011;4644;48.858;9.184;2023-12-20T01:31:08;0.90;;;0.90;;
9218;SDS011;4644;48.858;9.184;2023-12-20T01:33:35;0.85;;;0.85;;
9218;SDS011;4644;48.858;9.184;2023-12-20T01:36:02;1.00;;;0.90;;
9218;SDS011;4644;48.858;9.184;2023-12-20T01:38:29;0.88;;;0.88;;
9218;SDS011;4644;48.858;9.184;2023-12-20T01:40:58;1.02;;;1.00;;
9218;SDS011;4644;48.858;9.184;2023-12-20T01:43:25;0.82;;;0.82;;
9218;SDS011;4644;48.858;9.184;2023-12-20T01:45:52;0.93;;;0.93;;
9218;SDS011;4644;48.858;9.184;2023-12-20T01:48:20;1.20;;;1.10;;
9218;SDS011;4644;48.858;9.184;2023-12-20T01:50:48;1.65;;;1.20;;
9218;SDS011;4644;48.858;9.184;2023-12-20T01:53:15;0.80;;;0.80;;
9218;SDS011;4644;48.858;9.184;2023-12-20T01:55:43;0.80;;;0.80;;
9218;SDS011;4644;48.858;9.184;2023-12-20T01:58:12;1.30;;;1.20;;
9218;SDS011;4644;48.858;9.184;2023-12-20T02:00:39;1.55;;;1.45;;
9218;SDS011;4644;48.858;9.184;2023-12-20T02:03:07;1.10;;;1.10;;
9218;SDS011;4644;48.858;9.184;2023-12-20T02:05:34;0.90;;;0.90;;
9218;SDS011;4644;48.858;9.184;2023-12-20T02:08:02;0.98;;;0.88;;
9218;SDS011;4644;48.858;9.184;2023-12-20T02:10:29;1.30;;;1.20;;
9218;SDS011;4644;48.858;9.184;2023-12-20T02:12:56;1.20;;;1.10;;
9218;SDS011;4644;48.858;9.184;2023-12-20T02:15:25;1.00;;;1.00;;
9218;SDS011;4644;48.858;9.184;2023-12-20T02:17:52;1.50;;;1.10;;
9218;SDS011;4644;48.858;9.184;2023-12-20T02:20:19;0.93;;;0.93;;
9218;SDS011;4644;48.858;9.184;2023-12-20T02:22:47;0.80;;;0.80;;
9218;SDS011;4644;48.858;9.184;2023-12-20T02:25:14;1.10;;;1.00;;
9218;SDS011;4644;48.858;9.184;2023-12-20T02:27:41;1.10;;;1.00;;
9218;SDS011;4644;48.858;9.184;2023-12-20T02:30:09;0.90;;;0.90;;
9218;SDS011;4644;48.858;9.184;2023-12-20T02:32:37;0.88;;;0.88;;
9218;SDS011;4644;48.858;9.184;2023-12-20T02:35:04;0.90;;;0.90;;
9218;SDS011;4644;48.858;9.184;2023-12-20T02:37:32;0.80;;;0.80;;
9218;SDS011;4644;48.858;9.184;2023-12-20T02:40:00;0.90;;;0.90;;
9218;SDS011;4644;48.858;9.184;2023-12-20T02:42:28;0.80;;;0.80;;
9218;SDS011;4644;48.858;9.184;2023-12-20T02:44:54;0.70;;;0.68;;
9218;SDS011;4644;48.858;9.184;2023-12-20T02:47:21;0.63;;;0.63;;
9218;SDS011;4644;48.858;9.184;2023-12-20T02:49:48;0.70;;;0.70;;
9218;SDS011;4644;48.858;9.184;2023-12-20T02:52:15;0.50;;;0.50;;
9218;SDS011;4644;48.858;9.184;2023-12-20T02:54:42;0.50;;;0.50;;
9218;SDS011;4644;48.858;9.184;2023-12-20T02:57:10;0.35;;;0.35;;
9218;SDS011;4644;48.858;9.184;2023-12-20T02:59:38;0.40;;;0.40;;
9218;SDS011;4644;48.858;9.184;2023-12-20T03:02:04;0.20;;;0.20;;
9218;SDS011;4644;48.858;9.184;2023-12-20T03:04:31;0.30;;;0.30;;
9218;SDS011;4644;48.858;9.184;2023-12-20T03:06:58;0.30;;;0.30;;
9218;SDS011;4644;48.858;9.184;2023-12-20T03:09:25;0.30;;;0.30;;
9218;SDS011;4644;48.858;9.184;2023-12-20T03:11:52;0.30;;;0.30;;
9218;SDS011;4644;48.858;9.184;2023-12-20T03:14:20;0.40;;;0.40;;
9218;SDS011;4644;48.858;9.184;2023-12-20T03:16:47;0.40;;;0.40;;
9218;SDS011;4644;48.858;9.184;2023-12-20T03:19:15;0.40;;;0.40;;
9218;SDS011;4644;48.858;9.184;2023-12-20T03:21:42;0.40;;;0.40;;
9218;SDS011;4644;48.858;9.184;2023-12-20T03:24:09;0.30;;;0.30;;
9218;SDS011;4644;48.858;9.184;2023-12-20T03:26:36;0.30;;;0.30;;
9218;SDS011;4644;48.858;9.184;2023-12-20T03:29:02;0.30;;;0.30;;
9218;SDS011;4644;48.858;9.184;2023-12-20T03:31:31;0.30;;;0.30;;
9218;SDS011;4644;48.858;9.184;2023-12-20T03:33:58;0.32;;;0.32;;
9218;SDS011;4644;48.858;9.184;2023-12-20T03:36:24;0.30;;;0.30;;
9218;SDS011;4644;48.858;9.184;2023-12-20T03:38:51;0.40;;;0.40;;
9218;SDS011;4644;48.858;9.184;2023-12-20T03:41:18;0.43;;;0.43;;
9218;SDS011;4644;48.858;9.184;2023-12-20T03:43:45;0.30;;;0.30;;
9218;SDS011;4644;48.858;9.184;2023-12-20T03:46:12;0.20;;;0.20;;
9218;SDS011;4644;48.858;9.184;2023-12-20T03:48:40;0.30;;;0.30;;
9218;SDS011;4644;48.858;9.184;2023-12-20T03:51:07;0.30;;;0.30;;
9218;SDS011;4644;48.858;9.184;2023-12-20T03:53:34;0.40;;;0.40;;
9218;SDS011;4644;48.858;9.184;2023-12-20T03:56:00;0.40;;;0.40;;
9218;SDS011;4644;48.858;9.184;2023-12-20T03:58:27;0.47;;;0.47;;
9218;SDS011;4644;48.858;9.184;2023-12-20T04:00:54;0.30;;;0.30;;
9218;SDS011;4644;48.858;9.184;2023-12-20T04:03:21;0.30;;;0.30;;
9218;SDS011;4644;48.858;9.184;2023-12-20T04:05:49;0.30;;;0.30;;
9218;SDS011;4644;48.858;9.184;2023-12-20T04:08:16;0.30;;;0.30;;
9218;SDS011;4644;48.858;9.184;2023-12-20T04:10:43;0.40;;;0.40;;
9218;SDS011;4644;48.858;9.184;2023-12-20T04:13:10;0.38;;;0.38;;
9218;SDS011;4644;48.858;9.184;2023-12-20T04:15:36;0.40;;;0.40;;
9218;SDS011;4644;48.858;9.184;2023-12-20T04:18:03;0.50;;;0.50;;
9218;SDS011;4644;48.858;9.184;2023-12-20T04:20:30;0.40;;;0.40;;
9218;SDS011;4644;48.858;9.184;2023-12-20T04:22:58;0.30;;;0.30;;
9218;SDS011;4644;48.858;9.184;2023-12-20T04:25:24;0.30;;;0.30;;
9218;SDS011;4644;48.858;9.184;2023-12-20T04:27:51;0.40;;;0.40;;
9218;SDS011;4644;48.858;9.184;2023-12-20T04:30:18;0.45;;;0.45;;
9218;SDS011;4644;48.858;9.184;2023-12-20T04:32:45;0.40;;;0.40;;
9218;SDS011;4644;48.858;9.184;2023-12-20T04:35:12;0.40;;;0.40;;
9218;SDS011;4644;48.858;9.184;2023-12-20T04:37:39;0.47;;;0.47;;
9218;SDS011;4644;48.858;9.184;2023-12-20T04:40:07;0.40;;;0.40;;
9218;SDS011;4644;48.858;9.184;2023-12-20T04:42:35;0.30;;;0.30;;
9218;SDS011;4644;48.858;9.184;2023-12-20T04:45:01;0.40;;;0.40;;
9218;SDS011;4644;48.858;9.184;2023-12-20T04:47:28;0.40;;;0.40;;
9218;SDS011;4644;48.858;9.184;2023-12-20T04:49:55;0.40;;;0.40;;
9218;SDS011;4644;48.858;9.184;2023-12-20T04:52:22;0.40;;;0.40;;
9218;SDS011;4644;48.858;9.184;2023-12-20T04:54:49;0.45;;;0.45;;
9218;SDS011;4644;48.858;9.184;2023-12-20T04:57:17;0.35;;;0.35;;
9218;SDS011;4644;48.858;9.184;2023-12-20T04:59:44;0.30;;;0.30;;
9218;SDS011;4644;48.858;9.184;2023-12-20T05:02:11;0.40;;;0.40;;
9218;SDS011;4644;48.858;9.184;2023-12-20T05:04:38;0.33;;;0.33;;
9218;SDS011;4644;48.858;9.184;2023-12-20T05:07:05;0.50;;;0.50;;
9218;SDS011;4644;48.858;9.184;2023-12-20T05:09:31;0.40;;;0.40;;
9218;SDS011;4644;48.858;9.184;2023-12-20T05:11:58;0.50;;;0.50;;
9218;SDS011;4644;48.858;9.184;2023-12-20T05:14:26;0.50;;;0.50;;
9218;SDS011;4644;48.858;9.184;2023-12-20T05:16:53;0.50;;;0.50;;
9218;SDS011;4644;48.858;9.184;2023-12-20T05:19:21;1.10;;;0.32;;
9218;SDS011;4644;48.858;9.184;2023-12-20T05:21:49;0.30;;;0.30;;
9218;SDS011;4644;48.858;9.184;2023-12-20T05:24:16;0.40;;;0.40;;
9218;SDS011;4644;48.858;9.184;2023-12-20T05:26:43;0.35;;;0.35;;
9218;SDS011;4644;48.858;9.184;2023-12-20T05:29:10;0.40;;;0.40;;
9218;SDS011;4644;48.858;9.184;2023-12-20T05:31:38;0.40;;;0.40;;
9218;SDS011;4644;48.858;9.184;2023-12-20T05:34:05;0.50;;;0.50;;
9218;SDS011;4644;48.858;9.184;2023-12-20T05:36:31;0.55;;;0.55;;
9218;SDS011;4644;48.858;9.184;2023-12-20T05:38:58;0.50;;;0.50;;
9218;SDS011;4644;48.858;9.184;2023-12-20T05:41:25;0.40;;;0.40;;
9218;SDS011;4644;48.858;9.184;2023-12-20T05:43:52;0.40;;;0.40;;
9218;SDS011;4644;48.858;9.184;2023-12-20T05:46:19;0.50;;;0.50;;
9218;SDS011;4644;48.858;9.184;2023-12-20T05:48:47;0.50;;;0.50;;
9218;SDS011;4644;48.858;9.184;2023-12-20T05:51:14;0.57;;;0.57;;
9218;SDS011;4644;48.858;9.184;2023-12-20T05:53:41;0.60;;;0.60;;
9218;SDS011;4644;48.858;9.184;2023-12-20T05:56:09;0.63;;;0.63;;
9218;SDS011;4644;48.858;9.184;2023-12-20T05:58:36;0.60;;;0.60;;
9218;SDS011;4644;48.858;9.184;2023-12-20T06:01:03;0.47;;;0.47;;
9218;SDS011;4644;48.858;9.184;2023-12-20T06:03:30;0.55;;;0.55;;
9218;SDS011;4644;48.858;9.184;2023-12-20T06:05:58;0.60;;;0.60;;
9218;SDS011;4644;48.858;9.184;2023-12-20T06:08:30;0.63;;;0.63;;
9218;SDS011;4644;48.858;9.184;2023-12-20T06:10:57;0.60;;;0.60;;
9218;SDS011;4644;48.858;9.184;2023-12-20T06:13:24;1.45;;;0.60;;
9218;SDS011;4644;48.858;9.184;2023-12-20T06:15:50;0.57;;;0.57;;
9218;SDS011;4644;48.858;9.184;2023-12-20T06:18:18;0.50;;;0.50;;
9218;SDS011;4644;48.858;9.184;2023-12-20T06:20:44;0.60;;;0.60;;
9218;SDS011;4644;48.858;9.184;2023-12-20T06:23:13;0.70;;;0.70;;
9218;SDS011;4644;48.858;9.184;2023-12-20T06:25:39;0.50;;;0.50;;
9218;SDS011;4644;48.858;9.184;2023-12-20T06:28:06;0.60;;;0.60;;
9218;SDS011;4644;48.858;9.184;2023-12-20T06:30:35;0.60;;;0.60;;
9218;SDS011;4644;48.858;9.184;2023-12-20T06:33:02;0.68;;;0.68;;
9218;SDS011;4644;48.858;9.184;2023-12-20T06:35:29;0.68;;;0.68;;
9218;SDS011;4644;48.858;9.184;2023-12-20T06:37:56;0.60;;;0.60;;
9218;SDS011;4644;48.858;9.184;2023-12-20T06:40:24;0.60;;;0.60;;
9218;SDS011;4644;48.858;9.184;2023-12-20T06:42:51;0.50;;;0.50;;
9218;SDS011;4644;48.858;9.184;2023-12-20T06:45:18;0.57;;;0.57;;
9218;SDS011;4644;48.858;9.184;2023-12-20T06:47:45;0.80;;;0.63;;
9218;SDS011;4644;48.858;9.184;2023-12-20T06:50:12;0.63;;;0.63;;
9218;SDS011;4644;48.858;9.184;2023-12-20T06:52:39;0.70;;;0.70;;
9218;SDS011;4644;48.858;9.184;2023-12-20T06:55:06;0.90;;;0.90;;
9218;SDS011;4644;48.858;9.184;2023-12-20T06:57:35;0.80;;;0.80;;
9218;SDS011;4644;48.858;9.184;2023-12-20T07:00:02;0.95;;;0.95;;
9218;SDS011;4644;48.858;9.184;2023-12-20T07:02:30;0.95;;;0.80;;
9218;SDS011;4644;48.858;9.184;2023-12-20T07:04:57;0.90;;;0.90;;
9218;SDS011;4644;48.858;9.184;2023-12-20T07:07:24;0.90;;;0.90;;
9218;SDS011;4644;48.858;9.184;2023-12-20T07:09:51;1.10;;;1.10;;
9218;SDS011;4644;48.858;9.184;2023-12-20T07:12:18;1.00;;;1.00;;
9218;SDS011;4644;48.858;9.184;2023-12-20T07:14:46;1.02;;;1.02;;
9218;SDS011;4644;48.858;9.184;2023-12-20T07:17:13;1.40;;;1.30;;
9218;SDS011;4644;48.858;9.184;2023-12-20T07:19:40;1.33;;;1.23;;
9218;SDS011;4644;48.858;9.184;2023-12-20T07:22:07;1.55;;;1.45;;
9218;SDS011;4644;48.858;9.184;2023-12-20T07:24:35;1.52;;;1.40;;
9218;SDS011;4644;48.858;9.184;2023-12-20T07:27:01;1.42;;;1.33;;
9218;SDS011;4644;48.858;9.184;2023-12-20T07:29:29;1.45;;;1.35;;
9218;SDS011;4644;48.858;9.184;2023-12-20T07:31:57;1.30;;;1.20;;
9218;SDS011;4644;48.858;9.184;2023-12-20T07:34:24;1.20;;;1.13;;
9218;SDS011;4644;48.858;9.184;2023-12-20T07:36:50;1.13;;;1.13;;
9218;SDS011;4644;48.858;9.184;2023-12-20T07:39:17;1.33;;;1.23;;
9218;SDS011;4644;48.858;9.184;2023-12-20T07:41:44;1.15;;;1.15;;
9218;SDS011;4644;48.858;9.184;2023-12-20T07:44:11;1.40;;;1.30;;
9218;SDS011;4644;48.858;9.184;2023-12-20T07:46:38;1.60;;;1.50;;
9218;SDS011;4644;48.858;9.184;2023-12-20T07:49:07;1.50;;;1.40;;
9218;SDS011;4644;48.858;9.184;2023-12-20T07:51:35;1.38;;;1.27;;
9218;SDS011;4644;48.858;9.184;2023-12-20T07:54:02;1.05;;;1.05;;
9218;SDS011;4644;48.858;9.184;2023-12-20T07:56:29;1.40;;;1.30;;
9218;SDS011;4644;48.858;9.184;2023-12-20T07:58:56;1.13;;;1.13;;
9218;SDS011;4644;48.858;9.184;2023-12-20T08:01:23;1.50;;;1.40;;
9218;SDS011;4644;48.858;9.184;2023-12-20T08:03:50;1.40;;;1.30;;
9218;SDS011;4644;48.858;9.184;2023-12-20T08:06:18;1.50;;;1.40;;
9218;SDS011;4644;48.858;9.184;2023-12-20T08:08:45;1.00;;;1.00;;
9218;SDS011;4644;48.858;9.184;2023-12-20T08:11:12;1.33;;;1.23;;
9218;SDS011;4644;48.858;9.184;2023-12-20T08:13:39;1.27;;;1.20;;
9218;SDS011;4644;48.858;9.184;2023-12-20T08:16:06;1.35;;;1.25;;
9218;SDS011;4644;48.858;9.184;2023-12-20T08:18:33;1.10;;;1.10;;
9218;SDS011;4644;48.858;9.184;2023-12-20T08:21:00;1.23;;;1.20;;
9218;SDS011;4644;48.858;9.184;2023-12-20T08:23:28;1.30;;;1.20;;
9218;SDS011;4644;48.858;9.184;2023-12-20T08:25:55;1.05;;;1.00;;
9218;SDS011;4644;48.858;9.184;2023-12-20T08:28:22;1.30;;;1.25;;
9218;SDS011;4644;48.858;9.184;2023-12-20T08:30:49;1.40;;;1.30;;
9218;SDS011;4644;48.858;9.184;2023-12-20T08:33:18;1.38;;;1.27;;
9218;SDS011;4644;48.858;9.184;2023-12-20T08:35:45;1.08;;;1.08;;
9218;SDS011;4644;48.858;9.184;2023-12-20T08:38:12;1.08;;;1.08;;
9218;SDS011;4644;48.858;9.184;2023-12-20T08:40:40;1.50;;;1.40;;
9218;SDS011;4644;48.858;9.184;2023-12-20T08:43:07;1.45;;;1.20;;
9218;SDS011;4644;48.858;9.184;2023-12-20T08:45:34;1.30;;;1.30;;
9218;SDS011;4644;48.858;9.184;2023-12-20T08:48:01;1.00;;;1.00;;
9218;SDS011;4644;48.858;9.184;2023-12-20T08:50:28;1.15;;;1.05;;
9218;SDS011;4644;48.858;9.184;2023-12-20T08:52:55;1.00;;;1.00;;
9218;SDS011;4644;48.858;9.184;2023-12-20T08:55:22;1.40;;;1.30;;
9218;SDS011;4644;48.858;9.184;2023-12-20T08:57:50;1.58;;;1.33;;
9218;SDS011;4644;48.858;9.184;2023-12-20T09:00:18;1.20;;;1.20;;
9218;SDS011;4644;48.858;9.184;2023-12-20T09:02:46;1.17;;;1.10;;
9218;SDS011;4644;48.858;9.184;2023-12-20T09:05:12;1.92;;;1.30;;
9218;SDS011;4644;48.858;9.184;2023-12-20T09:07:39;1.40;;;1.30;;
9218;SDS011;4644;48.858;9.184;2023-12-20T09:10:06;1.20;;;1.20;;
9218;SDS011;4644;48.858;9.184;2023-12-20T09:12:34;1.17;;;1.08;;
9218;SDS011;4644;48.858;9.184;2023-12-20T09:15:04;1.48;;;1.00;;
9218;SDS011;4644;48.858;9.184;2023-12-20T09:17:31;1.10;;;1.10;;
9218;SDS011;4644;48.858;9.184;2023-12-20T09:19:59;0.80;;;0.80;;
9218;SDS011;4644;48.858;9.184;2023-12-20T09:22:25;1.00;;;1.00;;
9218;SDS011;4644;48.858;9.184;2023-12-20T09:24:53;1.00;;;1.00;;
9218;SDS011;4644;48.858;9.184;2023-12-20T09:27:20;1.13;;;1.08;;
9218;SDS011;4644;48.858;9.184;2023-12-20T09:29:46;1.15;;;1.05;;
9218;SDS011;4644;48.858;9.184;2023-12-20T09:32:15;1.10;;;1.10;;
9218;SDS011;4644;48.858;9.184;2023-12-20T09:34:41;1.00;;;1.00;;
9218;SDS011;4644;48.858;9.184;2023-12-20T09:37:11;1.02;;;1.02;;
9218;SDS011;4644;48.858;9.184;2023-12-20T09:39:38;0.70;;;0.70;;
9218;SDS011;4644;48.858;9.184;2023-12-20T09:42:05;0.90;;;0.80;;
9218;SDS011;4644;48.858;9.184;2023-12-20T09:44:33;0.75;;;0.70;;
9218;SDS011;4644;48.858;9.184;2023-12-20T09:47:01;0.73;;;0.73;;
9218;SDS011;4644;48.858;9.184;2023-12-20T09:52:53;0.68;;;0.68;;
9218;SDS011;4644;48.858;9.184;2023-12-20T09:55:21;2.20;;;0.80;;
9218;SDS011;4644;48.858;9.184;2023-12-20T09:57:48;1.23;;;0.80;;
9218;SDS011;4644;48.858;9.184;2023-12-20T10:00:16;0.67;;;0.67;;
9218;SDS011;4644;48.858;9.184;2023-12-20T10:02:45;2.10;;;0.70;;
9218;SDS011;4644;48.858;9.184;2023-12-20T10:05:17;0.65;;;0.65;;
9218;SDS011;4644;48.858;9.184;2023-12-20T10:07:45;0.63;;;0.63;;
9218;SDS011;4644;48.858;9.184;2023-12-20T10:10:14;0.60;;;0.60;;
9218;SDS011;4644;48.858;9.184;2023-12-20T10:12:41;0.73;;;0.73;;
9218;SDS011;4644;48.858;9.184;2023-12-20T10:15:28;0.63;;;0.63;;
9218;SDS011;4644;48.858;9.184;2023-12-20T10:17:55;0.73;;;0.70;;
9218;SDS011;4644;48.858;9.184;2023-12-20T10:20:22;1.13;;;0.80;;
9218;SDS011;4644;48.858;9.184;2023-12-20T10:22:49;0.60;;;0.60;;
9218;SDS011;4644;48.858;9.184;2023-12-20T10:25:20;0.70;;;0.70;;
9218;SDS011;4644;48.858;9.184;2023-12-20T10:27:47;0.80;;;0.80;;
9218;SDS011;4644;48.858;9.184;2023-12-20T10:30:13;0.70;;;0.70;;
9218;SDS011;4644;48.858;9.184;2023-12-20T10:32:41;0.60;;;0.60;;
9218;SDS011;4644;48.858;9.184;2023-12-20T10:35:08;0.63;;;0.63;;
9218;SDS011;4644;48.858;9.184;2023-12-20T10:37:35;0.60;;;0.60;;
9218;SDS011;4644;48.858;9.184;2023-12-20T10:40:03;0.70;;;0.60;;
9218;SDS011;4644;48.858;9.184;2023-12-20T10:42:32;0.65;;;0.65;;
9218;SDS011;4644;48.858;9.184;2023-12-20T10:45:01;0.70;;;0.70;;
9218;SDS011;4644;48.858;9.184;2023-12-20T10:47:28;0.63;;;0.63;;
9218;SDS011;4644;48.858;9.184;2023-12-20T10:49:58;0.70;;;0.70;;
9218;SDS011;4644;48.858;9.184;2023-12-20T10:52:26;0.70;;;0.70;;
9218;SDS011;4644;48.858;9.184;2023-12-20T10:54:55;0.68;;;0.68;;
9218;SDS011;4644;48.858;9.184;2023-12-20T10:57:22;0.77;;;0.77;;
9218;SDS011;4644;48.858;9.184;2023-12-20T10:59:54;0.68;;;0.68;;
9218;SDS011;4644;48.858;9.184;2023-12-20T11:02:22;0.60;;;0.60;;
9218;SDS011;4644;48.858;9.184;2023-12-20T11:04:50;0.50;;;0.50;;
9218;SDS011;4644;48.858;9.184;2023-12-20T11:07:23;0.90;;;0.70;;
9218;SDS011;4644;48.858;9.184;2023-12-20T11:10:10;0.60;;;0.60;;
9218;SDS011;4644;48.858;9.184;2023-12-20T11:12:43;0.60;;;0.60;;
9218;SDS011;4644;48.858;9.184;2023-12-20T11:15:19;0.60;;;0.60;;
9218;SDS011;4644;48.858;9.184;2023-12-20T11:17:49;0.60;;;0.60;;
9218;SDS011;4644;48.858;9.184;2023-12-20T11:20:22;0.60;;;0.55;;
9218;SDS011;4644;48.858;9.184;2023-12-20T11:22:52;0.50;;;0.50;;
9218;SDS011;4644;48.858;9.184;2023-12-20T11:25:21;0.50;;;0.50;;
9218;SDS011;4644;48.858;9.184;2023-12-20T11:30:41;0.63;;;0.60;;
9218;SDS011;4644;48.858;9.184;2023-12-20T11:33:12;1.17;;;0.60;;
9218;SDS011;4644;48.858;9.184;2023-12-20T11:35:40;0.50;;;0.50;;
9218;SDS011;4644;48.858;9.184;2023-12-20T11:38:07;0.60;;;0.60;;
9218;SDS011;4644;48.858;9.184;2023-12-20T11:40:35;0.75;;;0.75;;
9218;SDS011;4644;48.858;9.184;2023-12-20T11:43:02;0.65;;;0.65;;
9218;SDS011;4644;48.858;9.184;2023-12-20T11:45:29;1.42;;;0.90;;
9218;SDS011;4644;48.858;9.184;2023-12-20T11:47:58;0.60;;;0.60;;
9218;SDS011;4644;48.858;9.184;2023-12-20T11:50:25;1.20;;;0.70;;
9218;SDS011;4644;48.858;9.184;2023-12-20T11:52:53;0.70;;;0.70;;
9218;SDS011;4644;48.858;9.184;2023-12-20T11:55:21;1.10;;;1.10;;
9218;SDS011;4644;48.858;9.184;2023-12-20T11:57:49;0.77;;;0.75;;
9218;SDS011;4644;48.858;9.184;2023-12-20T12:00:16;0.60;;;0.60;;
9218;SDS011;4644;48.858;9.184;2023-12-20T12:02:54;0.73;;;0.73;;
9218;SDS011;4644;48.858;9.184;2023-12-20T12:05:23;0.70;;;0.70;;
9218;SDS011;4644;48.858;9.184;2023-12-20T12:07:50;0.70;;;0.70;;
9218;SDS011;4644;48.858;9.184;2023-12-20T12:10:17;1.00;;;0.95;;
9218;SDS011;4644;48.858;9.184;2023-12-20T12:12:44;0.70;;;0.70;;
9218;SDS011;4644;48.858;9.184;2023-12-20T12:15:11;0.60;;;0.60;;
9218;SDS011;4644;48.858;9.184;2023-12-20T12:17:38;0.60;;;0.60;;
9218;SDS011;4644;48.858;9.184;2023-12-20T12:20:06;0.80;;;0.80;;
9218;SDS011;4644;48.858;9.184;2023-12-20T12:22:36;0.70;;;0.70;;
9218;SDS011;4644;48.858;9.184;2023-12-20T12:25:09;1.05;;;0.95;;
9218;SDS011;4644;48.858;9.184;2023-12-20T12:27:37;1.10;;;1.00;;
9218;SDS011;4644;48.858;9.184;2023-12-20T12:30:05;0.60;;;0.60;;
9218;SDS011;4644;48.858;9.184;2023-12-20T12:32:33;0.60;;;0.60;;
9218;SDS011;4644;48.858;9.184;2023-12-20T12:35:00;0.65;;;0.65;;
9218;SDS011;4644;48.858;9.184;2023-12-20T12:37:28;0.50;;;0.50;;
9218;SDS011;4644;48.858;9.184;2023-12-20T12:39:57;1.50;;;0.70;;
9218;SDS011;4644;48.858;9.184;2023-12-20T12:42:23;0.60;;;0.60;;
9218;SDS011;4644;48.858;9.184;2023-12-20T12:44:54;0.50;;;0.50;;
9218;SDS011;4644;48.858;9.184;2023-12-20T12:47:21;0.60;;;0.60;;
9218;SDS011;4644;48.858;9.184;2023-12-20T12:49:49;0.50;;;0.50;;
9218;SDS011;4644;48.858;9.184;2023-12-20T12:52:17;0.60;;;0.60;;
9218;SDS011;4644;48.858;9.184;2023-12-20T12:54:44;1.50;;;0.80;;
9218;SDS011;4644;48.858;9.184;2023-12-20T12:57:13;0.70;;;0.70;;
9218;SDS011;4644;48.858;9.184;2023-12-20T12:59:40;0.80;;;0.80;;
9218;SDS011;4644;48.858;9.184;2023-12-20T13:02:07;0.70;;;0.60;;
9218;SDS011;4644;48.858;9.184;2023-12-20T13:04:34;0.65;;;0.65;;
9218;SDS011;4644;48.858;9.184;2023-12-20T13:07:01;0.82;;;0.80;;
9218;SDS011;4644;48.858;9.184;2023-12-20T13:09:28;0.50;;;0.50;;
9218;SDS011;4644;48.858;9.184;2023-12-20T13:11:55;1.07;;;0.57;;
9218;SDS011;4644;48.858;9.184;2023-12-20T13:14:23;0.55;;;0.55;;
9218;SDS011;4644;48.858;9.184;2023-12-20T13:16:50;0.70;;;0.70;;
9218;SDS011;4644;48.858;9.184;2023-12-20T13:19:17;0.57;;;0.50;;
9218;SDS011;4644;48.858;9.184;2023-12-20T13:21:44;1.38;;;0.60;;
9218;SDS011;4644;48.858;9.184;2023-12-20T13:24:10;1.10;;;0.68;;
9218;SDS011;4644;48.858;9.184;2023-12-20T13:26:37;0.60;;;0.60;;
9218;SDS011;4644;48.858;9.184;2023-12-20T13:29:04;0.60;;;0.60;;
9218;SDS011;4644;48.858;9.184;2023-12-20T13:31:32;0.63;;;0.63;;
9218;SDS011;4644;48.858;9.184;2023-12-20T13:34:01;0.70;;;0.70;;
9218;SDS011;4644;48.858;9.184;2023-12-20T13:36:28;0.60;;;0.60;;
9218;SDS011;4644;48.858;9.184;2023-12-20T13:38:55;0.55;;;0.55;;
9218;SDS011;4644;48.858;9.184;2023-12-20T13:41:22;0.70;;;0.70;;
9218;SDS011;4644;48.858;9.184;2023-12-20T13:43:49;0.50;;;0.50;;
9218;SDS011;4644;48.858;9.184;2023-12-20T13:46:16;1.00;;;0.60;;
9218;SDS011;4644;48.858;9.184;2023-12-20T13:48:44;0.70;;;0.70;;
9218;SDS011;4644;48.858;9.184;2023-12-20T13:51:11;1.10;;;0.60;;
9218;SDS011;4644;48.858;9.184;2023-12-20T13:53:37;0.88;;;0.73;;
9218;SDS011;4644;48.858;9.184;2023-12-20T13:56:04;0.60;;;0.50;;
9218;SDS011;4644;48.858;9.184;2023-12-20T13:58:32;0.43;;;0.43;;
9218;SDS011;4644;48.858;9.184;2023-12-20T14:01:00;0.63;;;0.63;;
9218;SDS011;4644;48.858;9.184;2023-12-20T14:03:27;1.15;;;0.65;;
9218;SDS011;4644;48.858;9.184;2023-12-20T14:05:55;0.70;;;0.70;;
9218;SDS011;4644;48.858;9.184;2023-12-20T14:08:22;0.50;;;0.50;;
9218;SDS011;4644;48.858;9.184;2023-12-20T14:10:49;0.60;;;0.60;;
9218;SDS011;4644;48.858;9.184;2023-12-20T14:13:16;1.20;;;1.10;;
9218;SDS011;4644;48.858;9.184;2023-12-20T14:15:43;0.70;;;0.60;;
9218;SDS011;4644;48.858;9.184;2023-12-20T14:18:11;0.70;;;0.70;;
9218;SDS011;4644;48.858;9.184;2023-12-20T14:20:40;0.55;;;0.52;;
9218;SDS011;4644;48.858;9.184;2023-12-20T14:23:08;0.52;;;0.52;;
9218;SDS011;4644;48.858;9.184;2023-12-20T14:25:35;0.65;;;0.65;;
9218;SDS011;4644;48.858;9.184;2023-12-20T14:28:03;0.50;;;0.50;;
9218;SDS011;4644;48.858;9.184;2023-12-20T14:30:30;1.00;;;0.90;;
9218;SDS011;4644;48.858;9.184;2023-12-20T14:32:57;0.63;;;0.63;;
9218;SDS011;4644;48.858;9.184;2023-12-20T14:35:24;0.70;;;0.70;;
9218;SDS011;4644;48.858;9.184;2023-12-20T14:37:51;0.63;;;0.63;;
9218;SDS011;4644;48.858;9.184;2023-12-20T14:40:19;0.43;;;0.43;;
9218;SDS011;4644;48.858;9.184;2023-12-20T14:42:46;0.55;;;0.55;;
9218;SDS011;4644;48.858;9.184;2023-12-20T14:45:14;0.63;;;0.63;;
9218;SDS011;4644;48.858;9.184;2023-12-20T14:47:41;0.70;;;0.70;;
9218;SDS011;4644;48.858;9.184;2023-12-20T14:50:08;0.68;;;0.68;;
9218;SDS011;4644;48.858;9.184;2023-12-20T14:52:36;0.60;;;0.60;;
9218;SDS011;4644;48.858;9.184;2023-12-20T14:55:03;0.82;;;0.82;;
9218;SDS011;4644;48.858;9.184;2023-12-20T14:57:32;0.60;;;0.60;;
9218;SDS011;4644;48.858;9.184;2023-12-20T14:59:59;0.52;;;0.52;;
9218;SDS011;4644;48.858;9.184;2023-12-20T15:02:26;0.60;;;0.50;;
9218;SDS011;4644;48.858;9.184;2023-12-20T15:04:53;0.80;;;0.75;;
9218;SDS011;4644;48.858;9.184;2023-12-20T15:07:19;0.60;;;0.60;;
9218;SDS011;4644;48.858;9.184;2023-12-20T15:09:46;0.70;;;0.70;;
9218;SDS011;4644;48.858;9.184;2023-12-20T15:12:14;0.80;;;0.80;;
9218;SDS011;4644;48.858;9.184;2023-12-20T15:14:42;1.50;;;0.70;;
9218;SDS011;4644;48.858;9.184;2023-12-20T15:17:09;0.73;;;0.73;;
9218;SDS011;4644;48.858;9.184;2023-12-20T15:19:36;0.60;;;0.60;;
9218;SDS011;4644;48.858;9.184;2023-12-20T15:22:03;0.73;;;0.73;;